Hitachi, Japan
Current Conditions -  °F | °C
As of 9:00 AM on Saturday 25 Oct 2014 (Local Time) from RJAH Reporting Station
Few Clouds Few Clouds  
Wind Chill: 63°   Ceiling: Unl
Heat Index: 63°   Visibility: 6mi
Dew Point: 52°   Wind: 2mph
Humidity: 68%   Direction: NA
Pressure: 30.21"   Gusts: NA
Location:  36.59°N, 140.66°E
Report Text: RJAH 250000Z VRB02KT 9999 FEW030 17/11 Q1023
Loading
Personal Weather Stations






























Interactive Weather Map
Tropical Storm Tracking
New forecast layout! Learn more

10-Day Weather Forecast

Advertisements
Track Severe Weather on mobile